Acme, Louisiana
Current Conditions -  °F | °C
As of 4:53 PM on Wednesday 17 Dec 2014 (Local Time) from KESF Reporting Station
Broken Clouds Broken Clouds  
Wind Chill: 12°   Ceiling: 11000
Heat Index: 12°   Visibility: 10mi
Dew Point:   Wind: 3mph
Humidity: 59%   Direction: 80°E
Pressure: 30.18"   Gusts: NA
Location:  31.29°N, 91.82°W
Report Text: KESF 172253Z AUTO 08003KT 10SM BKN110 12/04 A3018 RMK AO2 SLP220 T01220044
Loading
Personal Weather Stations






























Interactive Weather Map New forecast layout! Learn more

10-Day Weather Forecast

Advertisements
Track Severe Weather on mobile